Terminal Aerodrome Forecast
Issued by NWS

Home | Current Version | Previous Version | Graphics & Text | Print | Product List | Glossary On
Versions: 1 2 3 4 5 6 7 8 9 10 11 12 13 14 15 16
000
FTUS43 KMPX 281739
TAFRNH
TAF
KRNH 281739Z 2818/2918 02012KT P6SM BKN025
     FM282000 02012KT P6SM BKN035
     FM290100 01005KT P6SM BKN050
     FM290600 VRB02KT P6SM SKC
      TEMPO 2908/2912 1 1/2SM BR
     FM291200 04005KT P6SM SKC=

USA.gov is the U.S. government's official web portal to all federal, state and local government web resources and services.